createdAt,value
2024-02-13T00:03:23.444Z,8.70
2024-02-13T00:08:36.304Z,5.72
2024-02-13T00:13:47.524Z,6.03
2024-02-13T00:18:49.598Z,11.73
2024-02-13T00:23:51.527Z,4.70
2024-02-13T00:28:53.367Z,4.13
2024-02-13T00:33:55.891Z,5.63
2024-02-13T00:38:58.201Z,6.60
2024-02-13T00:43:59.822Z,11.57
2024-02-13T00:49:01.815Z,14.82
2024-02-13T00:54:03.362Z,12.48
2024-02-13T00:59:05.035Z,11.88
2024-02-13T01:04:07.648Z,14.73
2024-02-13T01:09:09.372Z,18.17
2024-02-13T01:14:11.082Z,9.52
2024-02-13T01:19:13.948Z,15.85
2024-02-13T01:24:19.111Z,19.73
2024-02-13T01:29:21.142Z,17.13
2024-02-13T01:34:22.916Z,14.57
2024-02-13T01:39:25.301Z,21.08
2024-02-13T01:44:29.563Z,18.73
2024-02-13T01:49:31.356Z,14.52
2024-02-13T01:54:32.978Z,25.65
2024-02-13T01:59:39.946Z,19.08
2024-02-13T02:04:42.291Z,15.45
2024-02-13T02:09:44.629Z,24.85
2024-02-13T02:14:46.220Z,19.98
2024-02-13T02:19:48.016Z,16.15
2024-02-13T02:24:49.581Z,11.82
2024-02-13T02:29:51.288Z,14.20
2024-02-13T02:34:53.120Z,20.00
2024-02-13T02:39:55.032Z,17.55
2024-02-13T02:44:56.582Z,14.07
2024-02-13T02:49:58.104Z,18.92
2024-02-13T02:54:59.875Z,16.48
2024-02-13T03:00:08.053Z,16.30
2024-02-13T03:05:12.529Z,12.77
2024-02-13T03:10:14.374Z,20.85
2024-02-13T03:15:15.993Z,17.67
2024-02-13T03:20:17.784Z,17.20
2024-02-13T03:25:20.115Z,13.93
2024-02-13T03:30:21.685Z,13.95
2024-02-13T03:35:23.294Z,20.65
2024-02-13T03:40:24.815Z,12.52
2024-02-13T03:45:26.380Z,14.30
2024-02-13T03:50:28.092Z,15.20
2024-02-13T03:55:29.736Z,11.65
2024-02-13T04:00:31.290Z,13.75
2024-02-13T04:05:38.567Z,11.18
2024-02-13T04:10:40.141Z,16.02
2024-02-13T04:15:44.634Z,16.67
2024-02-13T04:20:46.364Z,12.60
2024-02-13T04:25:47.948Z,16.70
2024-02-13T04:30:49.907Z,16.75
2024-02-13T04:35:51.631Z,17.10
2024-02-13T04:40:53.243Z,12.15
2024-02-13T04:45:54.776Z,19.38
2024-02-13T04:50:56.367Z,17.23
2024-02-13T04:55:58.140Z,22.63
2024-02-13T05:01:10.704Z,18.10
2024-02-13T05:06:30.911Z,21.95
2024-02-13T05:11:32.559Z,18.45
2024-02-13T05:16:35.166Z,14.07
2024-02-13T05:21:37.245Z,14.65
2024-02-13T05:26:39.953Z,15.98
2024-02-13T05:31:42.366Z,17.80
2024-02-13T05:36:44.868Z,19.20
2024-02-13T05:41:46.504Z,18.98
2024-02-13T05:46:48.238Z,14.13
2024-02-13T05:51:49.837Z,20.10
2024-02-13T05:56:51.710Z,16.10
2024-02-13T06:01:54.885Z,22.83
2024-02-13T06:06:56.834Z,24.30
2024-02-13T06:11:58.608Z,24.17
2024-02-13T06:17:00.398Z,18.92
2024-02-13T06:22:02.055Z,18.42
2024-02-13T06:27:03.760Z,26.83
2024-02-13T06:32:05.826Z,19.55
2024-02-13T06:37:07.398Z,19.05
2024-02-13T06:42:09.012Z,23.13
2024-02-13T06:47:13.348Z,15.93
2024-02-13T06:52:14.963Z,23.42
2024-02-13T06:57:16.494Z,18.33
2024-02-13T07:02:18.087Z,21.02
2024-02-13T07:07:29.588Z,27.98
2024-02-13T07:12:39.567Z,23.13
2024-02-13T07:17:52.451Z,20.80
2024-02-13T07:22:58.780Z,22.13
2024-02-13T07:28:00.396Z,20.77
2024-02-13T07:33:03.284Z,20.90
2024-02-13T07:38:05.670Z,22.55
2024-02-13T07:43:07.342Z,24.67
2024-02-13T07:48:12.365Z,28.40
2024-02-13T07:53:14.053Z,18.33
2024-02-13T07:58:15.664Z,20.20
2024-02-13T08:03:17.203Z,21.48
2024-02-13T08:08:19.162Z,27.50
2024-02-13T08:13:20.920Z,26.30
2024-02-13T08:18:22.636Z,28.88
2024-02-13T08:23:26.972Z,28.95
2024-02-13T08:28:28.570Z,21.63
2024-02-13T08:33:30.281Z,23.50
2024-02-13T08:38:31.943Z,22.33
2024-02-13T08:43:33.933Z,26.40
2024-02-13T08:48:35.650Z,23.15
2024-02-13T08:53:37.498Z,30.05
2024-02-13T08:58:39.026Z,27.02
2024-02-13T09:03:40.574Z,26.10
2024-02-13T09:08:43.567Z,27.95
2024-02-13T09:13:47.331Z,31.88
2024-02-13T09:18:49.101Z,33.03
2024-02-13T09:23:50.854Z,27.20
2024-02-13T09:28:52.773Z,26.88
2024-02-13T09:33:55.517Z,30.95
2024-02-13T09:38:59.317Z,26.95
2024-02-13T09:44:03.589Z,24.50
2024-02-13T09:49:06.727Z,25.00
2024-02-13T09:59:12.898Z,23.90
2024-02-13T10:04:14.936Z,24.90
2024-02-13T10:09:16.488Z,32.10
2024-02-13T10:14:21.881Z,26.67
2024-02-13T10:19:23.760Z,28.80
2024-02-13T10:24:25.469Z,25.05
2024-02-13T10:29:27.084Z,27.35
2024-02-13T10:34:28.717Z,22.00
2024-02-13T10:39:30.599Z,23.35
2024-02-13T10:44:32.152Z,19.85
2024-02-13T10:49:44.442Z,24.48
2024-02-13T10:54:49.324Z,26.38
2024-02-13T10:59:50.866Z,30.85
2024-02-13T11:04:52.765Z,19.40
2024-02-13T11:09:54.534Z,27.60
2024-02-13T11:15:16.588Z,23.80
2024-02-13T11:20:25.388Z,28.30
2024-02-13T11:25:27.923Z,19.73
2024-02-13T11:30:29.663Z,30.13
2024-02-13T11:35:32.214Z,20.27
2024-02-13T11:40:34.524Z,20.30
2024-02-13T11:45:36.062Z,26.27
2024-02-13T11:50:37.785Z,20.90
2024-02-13T11:55:39.598Z,15.85
2024-02-13T12:00:45.743Z,23.20
2024-02-13T12:05:47.444Z,24.33
2024-02-13T12:10:49.918Z,23.80
2024-02-13T12:15:51.659Z,20.70
2024-02-13T12:20:53.687Z,18.73
2024-02-13T12:26:01.762Z,26.05
2024-02-13T12:31:03.725Z,22.63
2024-02-13T12:36:09.394Z,17.75
2024-02-13T12:41:11.106Z,15.30
2024-02-13T12:46:14.286Z,21.95
2024-02-13T12:51:16.870Z,22.58
2024-02-13T12:56:19.084Z,27.60
2024-02-13T13:01:25.084Z,20.77
2024-02-13T13:06:27.939Z,24.58
2024-02-13T13:11:29.883Z,22.88
2024-02-13T13:16:33.980Z,21.92
2024-02-13T13:21:36.177Z,18.05
2024-02-13T13:26:42.277Z,14.70
2024-02-13T13:31:45.351Z,20.77
2024-02-13T13:41:50.870Z,17.40
2024-02-13T13:46:53.309Z,20.10
2024-02-13T13:51:54.816Z,19.48
2024-02-13T13:56:57.168Z,22.48
2024-02-13T14:01:58.801Z,21.33
2024-02-13T14:07:00.791Z,19.70
2024-02-13T14:12:06.616Z,22.40
2024-02-13T14:17:08.157Z,16.02
2024-02-13T14:22:13.249Z,16.73
2024-02-13T14:27:16.642Z,21.00
2024-02-13T14:32:19.778Z,17.83
2024-02-13T14:37:22.633Z,25.25
2024-02-13T14:42:24.188Z,29.10
2024-02-13T14:47:25.805Z,19.08
2024-02-13T14:52:27.381Z,19.13
2024-02-13T14:57:28.966Z,16.85
2024-02-13T15:02:34.694Z,15.65
2024-02-13T15:07:39.446Z,19.40
2024-02-13T15:12:41.449Z,16.60
2024-02-13T15:17:43.839Z,17.35
2024-02-13T15:22:45.560Z,21.40
2024-02-13T15:27:47.156Z,19.92
2024-02-13T15:32:49.125Z,17.63
2024-02-13T15:38:09.364Z,16.73
2024-02-13T15:43:29.252Z,17.73
2024-02-13T15:48:31.166Z,16.30
2024-02-13T15:53:38.243Z,18.00
2024-02-13T15:58:40.131Z,12.80
2024-02-13T16:03:44.342Z,18.33
2024-02-13T16:08:46.234Z,18.20
2024-02-13T16:13:48.896Z,14.13
2024-02-13T16:18:51.105Z,12.73
2024-02-13T16:23:54.655Z,14.98
2024-02-13T16:28:59.092Z,16.67
2024-02-13T16:34:01.654Z,16.15
2024-02-13T16:39:05.213Z,19.10
2024-02-13T16:44:06.824Z,12.05
2024-02-13T16:49:09.893Z,14.55
2024-02-13T16:54:11.911Z,15.40
2024-02-13T16:59:15.790Z,10.43
2024-02-13T17:04:17.616Z,11.80
2024-02-13T17:09:19.153Z,13.10
2024-02-13T17:14:20.764Z,16.88
2024-02-13T17:19:22.437Z,14.27
2024-02-13T17:24:24.705Z,12.95
2024-02-13T17:29:27.227Z,14.70
2024-02-13T17:34:29.231Z,12.45
2024-02-13T17:39:30.845Z,11.95
2024-02-13T17:44:32.513Z,13.00
2024-02-13T17:49:35.738Z,19.83
2024-02-13T17:54:37.372Z,10.73
2024-02-13T17:59:38.934Z,14.27
2024-02-13T18:04:40.485Z,18.88
2024-02-13T18:09:42.149Z,16.35
2024-02-13T18:14:43.731Z,12.38
2024-02-13T18:19:45.387Z,13.45
2024-02-13T18:24:49.818Z,14.65
2024-02-13T18:29:53.613Z,14.23
2024-02-13T18:34:55.257Z,8.85
2024-02-13T18:39:57.565Z,13.52
2024-02-13T18:44:59.132Z,12.25
2024-02-13T18:50:00.682Z,15.18
2024-02-13T18:55:09.883Z,12.68
2024-02-13T19:00:12.037Z,15.48
2024-02-13T19:05:13.734Z,11.15
2024-02-13T19:10:15.513Z,8.70
2024-02-13T19:15:17.930Z,11.32
2024-02-13T19:20:23.220Z,10.18
2024-02-13T19:25:26.866Z,7.43
2024-02-13T19:30:29.368Z,8.23
2024-02-13T19:35:33.209Z,16.15
2024-02-13T19:40:34.793Z,17.85
2024-02-13T19:45:37.771Z,14.10
2024-02-13T19:50:40.255Z,15.07
2024-02-13T19:55:41.983Z,13.38
2024-02-13T20:00:44.812Z,15.32
2024-02-13T20:05:46.464Z,15.25
2024-02-13T20:10:48.225Z,14.45
2024-02-13T20:15:51.093Z,12.15
2024-02-13T20:20:52.712Z,16.05
2024-02-13T20:25:54.250Z,15.23
2024-02-13T20:30:55.799Z,11.95
2024-02-13T20:36:01.075Z,14.93
2024-02-13T20:41:02.875Z,15.80
2024-02-13T20:46:12.256Z,15.23
2024-02-13T20:51:14.066Z,15.63
2024-02-13T20:56:18.466Z,14.57
2024-02-13T21:01:20.511Z,12.35
2024-02-13T21:06:24.927Z,20.08
2024-02-13T21:11:27.310Z,13.10
2024-02-13T21:16:31.017Z,17.55
2024-02-13T21:21:51.903Z,12.88
2024-02-13T21:26:53.567Z,15.52
2024-02-13T21:31:55.123Z,14.38
2024-02-13T21:36:56.679Z,13.90
2024-02-13T21:41:59.107Z,15.90
2024-02-13T21:47:00.927Z,11.75
2024-02-13T21:52:02.454Z,22.38
2024-02-13T21:57:07.473Z,12.82
2024-02-13T22:02:09.134Z,15.35
2024-02-13T22:07:10.678Z,11.93
2024-02-13T22:12:12.281Z,13.52
2024-02-13T22:17:13.841Z,17.92
2024-02-13T22:22:15.401Z,12.40
2024-02-13T22:27:17.258Z,12.82
2024-02-13T22:32:18.785Z,17.05
2024-02-13T22:37:21.333Z,17.90
2024-02-13T22:42:23.396Z,15.45
2024-02-13T22:47:25.037Z,13.70
2024-02-13T22:52:27.282Z,14.65
2024-02-13T22:57:29.103Z,14.23
2024-02-13T23:02:32.104Z,13.27
2024-02-13T23:07:33.999Z,14.13
2024-02-13T23:12:38.682Z,11.00
2024-02-13T23:17:40.280Z,18.75
2024-02-13T23:22:41.855Z,12.18
2024-02-13T23:27:43.521Z,13.20
2024-02-13T23:32:45.397Z,9.38
2024-02-13T23:37:47.157Z,13.90
2024-02-13T23:42:51.791Z,14.35
2024-02-13T23:47:53.763Z,9.45
2024-02-13T23:52:58.021Z,14.35
2024-02-13T23:58:00.074Z,12.05
